Time;durP1;ratioP1;P1;durP2;ratioP2;P2;SDS_P1;SDS_P2;PMS_P1;PMS_P2;Temp;Humidity;BMP_temperature;BMP_pressure;BME280_temperature;BME280_humidity;BME280_pressure;Samples;Min_cycle;Max_cycle;Signal;HPM_P1;HPM_P2
2022/01/16 00:04:05;;;;;;;80.37;17.47;;;;;;;2.69;100.00;98727.13;5174670;27;20601;-66
2022/01/16 00:04:54;;;;;;;101.27;15.80;;;;;;;2.84;100.00;98740.19;5171265;27;21333;-66
2022/01/16 00:07:21;;;;;;;46.03;13.83;;;;;;;2.85;100.00;98758.44;5174486;27;20643;-65
2022/01/16 00:09:47;;;;;;;87.47;16.67;;;;;;;2.55;100.00;98741.19;5174643;27;20180;-66
2022/01/16 00:12:18;;;;;;;47.23;15.90;;;;;;;2.75;100.00;98710.53;5174323;27;20608;-65
2022/01/16 00:14:45;;;;;;;72.73;18.27;;;;;;;2.58;100.00;98704.72;5174398;27;20605;-66
2022/01/16 00:17:13;;;;;;;109.77;19.80;;;;;;;2.53;100.00;98717.69;5174231;27;20633;-66
2022/01/16 00:19:40;;;;;;;76.60;17.83;;;;;;;2.62;100.00;98705.97;5174505;27;20625;-66
2022/01/16 00:22:13;;;;;;;109.67;16.77;;;;;;;2.56;100.00;98717.28;5174229;27;20593;-65
2022/01/16 00:24:39;;;;;;;81.60;16.87;;;;;;;2.58;100.00;98709.19;5165401;27;20713;-67
2022/01/16 00:27:07;;;;;;;84.40;18.10;;;;;;;2.53;100.00;98701.03;5174116;27;20847;-66
2022/01/16 00:29:33;;;;;;;114.33;19.20;;;;;;;2.55;100.00;98714.84;5161313;27;20610;-65
2022/01/16 00:32:01;;;;;;;103.60;19.23;;;;;;;2.54;100.00;98703.47;5169672;27;20626;-67
2022/01/16 00:34:29;;;;;;;86.30;17.80;;;;;;;2.51;100.00;98671.41;5154109;27;20614;-66
2022/01/16 00:36:56;;;;;;;110.57;20.20;;;;;;;2.52;100.00;98680.94;5154045;27;20666;-66
2022/01/16 00:39:23;;;;;;;103.53;19.53;;;;;;;2.66;100.00;98678.19;5160212;27;20603;-66
2022/01/16 00:41:49;;;;;;;82.57;19.30;;;;;;;2.84;100.00;98687.44;5152589;27;20615;-66
2022/01/16 00:44:16;;;;;;;68.57;18.13;;;;;;;2.66;100.00;98685.31;5173575;27;20872;-66
2022/01/16 00:46:43;;;;;;;89.87;18.43;;;;;;;2.63;100.00;98712.06;5173684;27;20620;-66
2022/01/16 00:49:10;;;;;;;76.30;17.53;;;;;;;2.71;100.00;98704.00;5173638;27;20614;-65
2022/01/16 00:51:38;;;;;;;83.57;17.60;;;;;;;2.64;100.00;98722.41;5173844;27;20673;-65
2022/01/16 00:54:05;;;;;;;78.60;17.80;;;;;;;2.56;100.00;98695.38;5165010;27;20677;-66
2022/01/16 00:56:31;;;;;;;72.30;15.10;;;;;;;2.49;100.00;98673.41;5173576;27;20586;-65
2022/01/16 00:58:58;;;;;;;130.40;23.10;;;;;;;2.22;100.00;98671.59;5173381;27;20633;-67
2022/01/16 01:01:25;;;;;;;75.07;15.00;;;;;;;2.47;100.00;98684.19;5173236;27;20594;-67
2022/01/16 01:03:57;;;;;;;57.77;15.30;;;;;;;2.82;100.00;98689.44;5173342;27;20662;-66
2022/01/16 01:06:24;;;;;;;68.47;17.00;;;;;;;2.58;100.00;98706.53;5173451;27;20606;-67
2022/01/16 01:08:52;;;;;;;43.10;12.67;;;;;;;2.56;100.00;98703.28;5173351;27;20602;-65
2022/01/16 01:11:24;;;;;;;66.70;14.90;;;;;;;2.50;100.00;98717.25;5164923;27;20582;-66
2022/01/16 01:14:14;;;;;;;43.23;10.83;;;;;;;2.46;100.00;98737.06;5173189;27;20602;-66
2022/01/16 01:16:51;;;;;;;58.90;12.13;;;;;;;2.45;100.00;98724.88;5167981;27;20606;-67
2022/01/16 01:19:18;;;;;;;69.83;11.90;;;;;;;2.47;100.00;98707.91;5164507;27;20629;-66
2022/01/16 01:21:45;;;;;;;44.17;12.70;;;;;;;2.34;100.00;98691.16;5173210;27;20598;-64
2022/01/16 01:24:13;;;;;;;50.23;13.83;;;;;;;2.27;100.00;98643.66;5171701;27;20644;-65
2022/01/16 01:26:48;;;;;;;58.50;13.10;;;;;;;2.26;100.00;98604.34;5173061;27;20613;-65
2022/01/16 01:29:18;;;;;;;60.30;12.33;;;;;;;2.44;100.00;98602.03;5172904;27;20586;-65
2022/01/16 01:31:45;;;;;;;80.73;15.13;;;;;;;2.86;100.00;98607.09;5172987;27;20602;-65
2022/01/16 01:34:11;;;;;;;42.43;12.03;;;;;;;2.72;100.00;98610.69;5172915;27;20644;-66
2022/01/16 01:36:38;;;;;;;125.30;15.73;;;;;;;2.84;100.00;98598.56;5172842;27;20594;-66
2022/01/16 01:39:05;;;;;;;53.23;13.30;;;;;;;3.08;100.00;98621.78;5172828;27;20605;-67
2022/01/16 01:41:32;;;;;;;46.33;12.93;;;;;;;3.04;100.00;98640.84;5172660;27;20601;-66
2022/01/16 01:52:11;;;;;;;54.03;14.70;;;;;;;2.53;100.00;98648.31;5172388;27;20625;-66
2022/01/16 01:54:38;;;;;;;83.47;14.80;;;;;;;2.40;100.00;98649.03;5171231;27;20633;-65
2022/01/16 01:57:06;;;;;;;49.37;13.27;;;;;;;2.20;100.00;98639.38;5172330;27;20600;-64
2022/01/16 01:59:33;;;;;;;91.47;14.57;;;;;;;2.18;100.00;98624.56;5172209;27;21360;-66
2022/01/16 02:02:00;;;;;;;48.80;12.57;;;;;;;2.07;100.00;98635.59;5172279;27;20628;-65
2022/01/16 02:04:26;;;;;;;92.33;15.97;;;;;;;2.42;100.00;98640.91;5172174;27;20649;-66
2022/01/16 02:06:53;;;;;;;133.27;15.93;;;;;;;2.38;100.00;98652.88;5172128;27;20646;-66
2022/01/16 02:09:21;;;;;;;42.50;12.23;;;;;;;2.98;100.00;98665.38;5172156;27;20597;-65
2022/01/16 02:11:49;;;;;;;57.77;15.00;;;;;;;3.31;100.00;98647.03;5172207;27;20594;-66
2022/01/16 02:14:27;;;;;;;46.13;14.77;;;;;;;3.29;100.00;98644.59;5171977;27;20602;-65
2022/01/16 02:28:10;;;;;;;60.43;14.53;;;;;;;2.86;100.00;98643.19;5171927;27;20596;-65
2022/01/16 02:31:12;;;;;;;88.50;15.47;;;;;;;3.04;100.00;98646.13;5171727;27;20614;-65
2022/01/16 02:36:32;;;;;;;66.33;12.47;;;;;;;2.43;100.00;98610.91;5164908;27;20634;-65
2022/01/16 02:39:05;;;;;;;90.17;15.40;;;;;;;2.20;100.00;98615.66;5171639;27;20597;-66
2022/01/16 02:41:32;;;;;;;43.53;11.30;;;;;;;2.00;100.00;98611.06;5171642;27;20597;-65
2022/01/16 02:43:59;;;;;;;62.73;16.77;;;;;;;2.53;100.00;98616.66;5171473;27;20673;-65
2022/01/16 02:46:39;;;;;;;43.57;12.53;;;;;;;2.80;100.00;98605.22;5171334;27;20633;-66
2022/01/16 02:49:17;;;;;;;61.57;11.97;;;;;;;3.32;100.00;98601.94;5171340;27;20646;-66
2022/01/16 02:51:44;;;;;;;74.60;15.10;;;;;;;3.51;100.00;98613.56;5171581;27;20609;-66
2022/01/16 02:54:12;;;;;;;65.97;14.63;;;;;;;3.66;100.00;98603.63;5162855;27;20599;-65
2022/01/16 02:56:39;;;;;;;59.67;13.90;;;;;;;3.57;100.00;98605.66;5171459;27;20596;-66
2022/01/16 02:59:07;;;;;;;76.97;15.30;;;;;;;3.55;100.00;98593.69;5171410;27;20617;-66
2022/01/16 03:01:34;;;;;;;66.20;14.20;;;;;;;3.66;100.00;98587.78;5171498;27;20614;-65
2022/01/16 03:04:01;;;;;;;65.17;13.50;;;;;;;3.75;100.00;98583.94;5171231;27;20663;-65
2022/01/16 03:06:28;;;;;;;75.63;14.77;;;;;;;3.64;100.00;98595.94;5171177;27;20613;-66
2022/01/16 03:08:56;;;;;;;69.47;13.30;;;;;;;3.42;100.00;98593.66;5171217;27;20600;-65
2022/01/16 03:11:25;;;;;;;39.73;10.90;;;;;;;2.46;100.00;98587.63;5171136;27;20598;-66
2022/01/16 03:13:52;;;;;;;71.90;13.07;;;;;;;2.39;100.00;98604.41;5171320;27;20635;-65
2022/01/16 03:16:20;;;;;;;38.27;10.67;;;;;;;2.29;100.00;98606.59;5162676;27;20605;-65
2022/01/16 03:24:17;;;;;;;61.50;13.87;;;;;;;3.28;100.00;98601.53;5162356;27;20633;-65
2022/01/16 03:26:45;;;;;;;61.87;12.63;;;;;;;2.96;100.00;98599.63;5171167;27;21437;-66
2022/01/16 03:29:11;;;;;;;56.80;13.43;;;;;;;2.87;100.00;98603.44;5171123;27;20602;-65
2022/01/16 03:31:38;;;;;;;83.90;14.33;;;;;;;2.57;100.00;98599.44;5171774;27;20630;-66
2022/01/16 03:34:05;;;;;;;69.30;14.63;;;;;;;2.77;100.00;98592.44;5175091;27;20609;-66
2022/01/16 03:36:31;;;;;;;64.07;14.90;;;;;;;2.76;100.00;98585.53;5175018;27;20598;-66
2022/01/16 03:38:58;;;;;;;48.83;12.70;;;;;;;2.93;100.00;98588.66;5175059;27;20593;-65
2022/01/16 03:41:27;;;;;;;46.93;11.83;;;;;;;2.97;100.00;98582.75;5175160;27;21449;-65
2022/01/16 03:43:58;;;;;;;53.57;14.83;;;;;;;2.70;100.00;98588.94;5156704;27;20633;-65
2022/01/16 03:46:29;;;;;;;55.20;14.37;;;;;;;2.64;100.00;98589.75;5174855;27;20605;-64
2022/01/16 03:48:55;;;;;;;49.20;12.93;;;;;;;2.40;100.00;98595.50;5174998;27;20645;-66
2022/01/16 03:51:22;;;;;;;54.73;13.10;;;;;;;2.37;100.00;98590.63;5174914;27;20620;-65
2022/01/16 03:53:50;;;;;;;44.93;13.10;;;;;;;2.36;100.00;98588.97;5165596;27;20624;-65
2022/01/16 03:56:16;;;;;;;104.13;16.60;;;;;;;2.42;100.00;98604.84;5174603;27;20598;-65
2022/01/16 03:58:43;;;;;;;58.20;13.13;;;;;;;2.67;100.00;98607.81;5174855;27;20605;-65
2022/01/16 04:01:11;;;;;;;40.73;14.70;;;;;;;2.67;100.00;98602.53;5174727;27;20628;-66
2022/01/16 04:03:38;;;;;;;78.03;13.70;;;;;;;2.19;100.00;98604.28;5174606;27;20980;-65
2022/01/16 04:06:04;;;;;;;66.40;14.80;;;;;;;2.29;100.00;98609.22;5174539;27;20631;-65
2022/01/16 04:08:31;;;;;;;60.13;15.07;;;;;;;2.62;100.00;98599.69;5174682;27;20622;-65
2022/01/16 04:10:59;;;;;;;63.50;15.10;;;;;;;2.52;100.00;98599.22;5174502;27;20621;-65
2022/01/16 04:13:25;;;;;;;92.53;17.03;;;;;;;2.46;100.00;98587.63;5174285;27;20606;-66
2022/01/16 04:15:52;;;;;;;47.53;14.40;;;;;;;2.39;100.00;98581.50;5157078;27;20610;-66
2022/01/16 04:18:20;;;;;;;67.33;15.53;;;;;;;2.33;100.00;98590.19;5157784;27;20613;-64
2022/01/16 04:20:47;;;;;;;81.60;16.00;;;;;;;2.16;100.00;98584.41;5158418;27;20629;-64
2022/01/16 04:23:13;;;;;;;72.07;17.70;;;;;;;2.36;100.00;98594.25;5159144;27;20633;-65
2022/01/16 04:25:40;;;;;;;78.37;16.30;;;;;;;2.65;100.00;98586.91;5160373;27;20645;-65
2022/01/16 04:28:07;;;;;;;59.97;16.73;;;;;;;2.97;100.00;98581.97;5159268;27;20634;-64
2022/01/16 04:30:33;;;;;;;87.57;17.57;;;;;;;3.19;100.00;98592.16;5155975;27;20595;-65
2022/01/16 04:33:00;;;;;;;74.80;17.73;;;;;;;3.22;100.00;98583.03;5162854;27;20602;-66
2022/01/16 04:35:28;;;;;;;80.63;15.23;;;;;;;3.49;100.00;98583.91;5153087;27;20603;-65
2022/01/16 04:37:55;;;;;;;63.30;16.80;;;;;;;3.67;100.00;98578.84;5170702;27;20626;-65
2022/01/16 04:40:22;;;;;;;83.67;15.90;;;;;;;3.74;100.00;98569.91;5174108;27;20621;-64
2022/01/16 04:45:45;;;;;;;73.20;15.23;;;;;;;4.00;100.00;98578.84;5105238;28;20732;-65
2022/01/16 04:48:11;;;;;;;64.43;14.70;;;;;;;3.97;100.00;98561.56;5158075;27;20665;-64
2022/01/16 04:50:39;;;;;;;61.87;16.60;;;;;;;3.96;100.00;98567.84;5155406;27;20602;-65
2022/01/16 04:53:06;;;;;;;43.67;15.50;;;;;;;3.90;100.00;98567.88;5172366;27;20599;-65
2022/01/16 04:55:32;;;;;;;50.00;14.17;;;;;;;3.84;100.00;98564.22;5173815;27;20602;-66
2022/01/16 04:57:59;;;;;;;87.93;16.87;;;;;;;4.00;100.00;98557.69;5173535;27;20623;-66
2022/01/16 05:00:26;;;;;;;77.13;14.87;;;;;;;3.91;100.00;98565.03;5155040;27;20626;-64
2022/01/16 05:02:52;;;;;;;49.60;13.73;;;;;;;3.83;100.00;98559.97;5173629;27;20634;-66
2022/01/16 05:05:19;;;;;;;64.00;16.63;;;;;;;3.90;100.00;98557.31;5164903;27;20650;-64
2022/01/16 05:07:47;;;;;;;71.13;16.33;;;;;;;3.77;100.00;98563.41;5173420;27;20598;-65
2022/01/16 05:10:13;;;;;;;66.13;16.30;;;;;;;3.83;100.00;98557.31;5173246;27;20610;-65
2022/01/16 05:12:44;;;;;;;84.93;16.33;;;;;;;3.42;100.00;98556.69;5173270;27;20597;-65
2022/01/16 05:17:55;;;;;;;58.73;12.37;;;;;;;3.19;100.00;98549.94;5173234;27;21184;-65
2022/01/16 05:20:22;;;;;;;59.90;13.77;;;;;;;2.87;100.00;98550.69;5173020;27;21483;-65
2022/01/16 05:22:50;;;;;;;75.53;14.67;;;;;;;2.84;100.00;98556.34;5172298;27;20637;-65
2022/01/16 05:25:18;;;;;;;39.33;13.30;;;;;;;2.95;100.00;98553.13;5172812;27;20729;-66
2022/01/16 05:27:45;;;;;;;48.00;13.00;;;;;;;3.04;100.00;98541.38;5172937;27;20602;-65
2022/01/16 05:30:12;;;;;;;62.13;14.30;;;;;;;3.19;100.00;98546.50;5173045;27;20594;-65
2022/01/16 05:32:39;;;;;;;36.50;11.27;;;;;;;3.54;100.00;98547.97;5173025;27;20597;-65
2022/01/16 05:35:07;;;;;;;42.00;10.50;;;;;;;3.60;100.00;98548.97;5172779;27;20631;-65
2022/01/16 05:37:33;;;;;;;52.70;13.07;;;;;;;3.32;100.00;98543.88;5172699;27;20590;-65
2022/01/16 05:40:02;;;;;;;67.50;13.07;;;;;;;3.57;100.00;98546.75;5172566;27;20626;-66
2022/01/16 05:42:29;;;;;;;116.93;16.90;;;;;;;3.71;100.00;98545.75;5172748;27;20606;-65
2022/01/16 05:44:56;;;;;;;46.77;12.30;;;;;;;3.74;100.00;98542.69;5172605;27;20645;-66
2022/01/16 05:47:22;;;;;;;90.77;16.13;;;;;;;3.83;100.00;98552.03;5172256;27;20672;-66
2022/01/16 05:49:49;;;;;;;60.67;15.20;;;;;;;3.84;100.00;98551.00;5172471;27;20621;-65
2022/01/16 05:52:15;;;;;;;52.07;14.37;;;;;;;3.73;100.00;98559.56;5172493;27;20593;-66
2022/01/16 05:54:42;;;;;;;68.17;14.70;;;;;;;3.64;100.00;98555.50;5162946;27;20623;-65
2022/01/16 05:57:10;;;;;;;57.57;13.93;;;;;;;3.52;100.00;98554.47;5172354;27;20616;-66
2022/01/16 05:59:36;;;;;;;63.80;12.13;;;;;;;3.53;100.00;98561.38;5172336;27;20598;-66
2022/01/16 06:02:04;;;;;;;58.73;13.50;;;;;;;3.57;100.00;98559.94;5172212;27;20605;-66
2022/01/16 06:04:30;;;;;;;126.13;16.03;;;;;;;3.60;100.00;98564.81;5172173;27;20672;-65
2022/01/16 06:06:57;;;;;;;49.83;13.73;;;;;;;3.74;100.00;98577.03;5172155;27;20645;-65
2022/01/16 06:09:25;;;;;;;68.43;16.30;;;;;;;3.60;100.00;98588.59;5172133;27;20598;-66
2022/01/16 06:11:53;;;;;;;62.63;15.23;;;;;;;3.61;100.00;98591.03;5172223;27;20601;-65
2022/01/16 06:14:21;;;;;;;62.37;14.50;;;;;;;3.60;100.00;98593.88;5163699;27;20598;-65
2022/01/16 06:16:48;;;;;;;55.53;12.00;;;;;;;3.67;100.00;98589.41;5172127;27;20610;-64
2022/01/16 06:19:15;;;;;;;44.47;12.67;;;;;;;3.52;100.00;98596.72;5171973;27;20610;-65
2022/01/16 06:21:41;;;;;;;52.93;12.83;;;;;;;3.52;100.00;98602.00;5172001;27;20599;-65
2022/01/16 06:24:08;;;;;;;29.73;11.00;;;;;;;3.49;100.00;98602.41;5163285;27;20595;-65
2022/01/16 06:26:35;;;;;;;80.30;13.37;;;;;;;3.33;100.00;98600.94;5171784;27;20673;-66
2022/01/16 06:29:01;;;;;;;45.13;10.33;;;;;;;3.24;100.00;98613.53;5171831;27;21146;-66
2022/01/16 06:31:29;;;;;;;39.20;10.83;;;;;;;3.26;100.00;98623.88;5171703;27;20594;-66
2022/01/16 06:33:58;;;;;;;34.40;10.47;;;;;;;3.25;100.00;98619.59;5171854;27;20597;-65
2022/01/16 06:36:25;;;;;;;59.60;11.90;;;;;;;3.23;100.00;98619.81;5171579;27;20622;-66
2022/01/16 06:38:53;;;;;;;48.90;10.43;;;;;;;3.32;100.00;98619.63;5171727;27;20602;-65
2022/01/16 06:41:19;;;;;;;44.03;11.93;;;;;;;3.36;100.00;98615.56;5163171;27;20606;-67
2022/01/16 06:43:46;;;;;;;52.80;10.37;;;;;;;3.41;100.00;98613.13;5171607;27;20627;-65
2022/01/16 06:46:13;;;;;;;65.43;13.00;;;;;;;3.59;100.00;98610.75;5171421;27;20685;-66
2022/01/16 06:48:42;;;;;;;49.17;10.10;;;;;;;3.73;100.00;98615.03;5171486;27;20601;-64
2022/01/16 06:51:09;;;;;;;34.60;11.07;;;;;;;3.78;100.00;98602.00;5153150;27;21413;-65
2022/01/16 06:53:36;;;;;;;102.83;15.03;;;;;;;3.85;100.00;98610.75;5170105;27;20637;-65
2022/01/16 06:56:02;;;;;;;29.27;9.20;;;;;;;3.93;100.00;98618.47;5171462;27;20617;-65
2022/01/16 06:58:29;;;;;;;43.83;11.23;;;;;;;3.95;100.00;98603.25;5171417;27;20598;-66
2022/01/16 07:00:55;;;;;;;75.60;11.40;;;;;;;3.93;100.00;98609.75;5152843;27;20625;-66
2022/01/16 07:03:22;;;;;;;46.27;9.77;;;;;;;3.67;100.00;98621.94;5171180;27;20598;-65
2022/01/16 07:05:50;;;;;;;44.50;8.73;;;;;;;3.87;100.00;98616.66;5172265;27;20660;-66
2022/01/16 07:08:18;;;;;;;54.37;10.37;;;;;;;3.88;100.00;98623.56;5175573;27;20598;-68
2022/01/16 07:10:45;;;;;;;60.87;10.40;;;;;;;3.88;100.00;98622.75;5175724;27;20598;-65
2022/01/16 07:13:13;;;;;;;34.27;8.00;;;;;;;3.83;100.00;98636.59;5175406;27;20632;-65
2022/01/16 07:15:40;;;;;;;34.77;9.80;;;;;;;3.87;100.00;98632.50;5175499;27;20606;-65
2022/01/16 07:18:06;;;;;;;67.07;10.77;;;;;;;3.97;100.00;98626.81;5175471;27;20612;-66
2022/01/16 07:20:33;;;;;;;51.37;9.00;;;;;;;3.77;100.00;98638.22;5175147;27;20622;-65
2022/01/16 07:23:01;;;;;;;48.97;9.07;;;;;;;3.51;100.00;98626.78;5174303;27;20606;-66
2022/01/16 07:25:27;;;;;;;47.07;8.90;;;;;;;3.59;100.00;98634.53;5167823;27;20684;-65
2022/01/16 07:27:54;;;;;;;35.87;7.93;;;;;;;3.40;100.00;98636.09;5175194;27;20628;-66
2022/01/16 07:30:20;;;;;;;44.97;9.37;;;;;;;3.31;100.00;98637.31;5175288;27;20601;-65
2022/01/16 07:32:47;;;;;;;35.60;6.77;;;;;;;3.37;100.00;98638.31;5175237;27;20598;-65
2022/01/16 07:35:13;;;;;;;89.20;11.40;;;;;;;3.55;100.00;98641.22;5174941;27;21103;-66
2022/01/16 07:37:40;;;;;;;56.80;10.13;;;;;;;3.68;100.00;98643.88;5175132;27;20597;-66
2022/01/16 07:40:10;;;;;;;48.87;7.10;;;;;;;3.47;100.00;98638.75;5175052;27;20597;-66
2022/01/16 07:42:37;;;;;;;92.23;10.67;;;;;;;3.36;100.00;98650.72;5175025;27;20681;-67
2022/01/16 07:45:04;;;;;;;53.43;8.87;;;;;;;3.39;100.00;98660.06;5174827;27;20633;-66
2022/01/16 07:47:30;;;;;;;40.23;7.67;;;;;;;3.56;100.00;98641.00;5174709;27;20627;-65
2022/01/16 07:49:57;;;;;;;90.87;10.93;;;;;;;3.45;100.00;98646.88;5174532;27;20670;-66
2022/01/16 07:52:24;;;;;;;28.33;7.30;;;;;;;3.70;100.00;98652.41;5174592;27;20598;-67
2022/01/16 07:54:51;;;;;;;42.93;10.07;;;;;;;3.84;100.00;98650.63;5166058;27;20604;-66
2022/01/16 07:57:19;;;;;;;40.50;8.87;;;;;;;3.58;100.00;98654.00;5174549;27;20598;-66
2022/01/16 07:59:45;;;;;;;63.73;8.60;;;;;;;3.40;100.00;98645.84;5174528;27;20598;-66
2022/01/16 08:02:12;;;;;;;53.87;9.30;;;;;;;3.45;100.00;98661.91;5174380;27;20614;-66
2022/01/16 08:04:38;;;;;;;49.77;7.90;;;;;;;3.26;100.00;98661.66;5174411;27;20848;-66
2022/01/16 08:07:09;;;;;;;81.10;10.43;;;;;;;3.30;100.00;98661.25;5174423;27;20779;-66
2022/01/16 08:09:35;;;;;;;27.90;7.30;;;;;;;3.38;100.00;98653.97;5174469;27;20592;-66
2022/01/16 08:12:02;;;;;;;40.83;9.10;;;;;;;3.44;100.00;98662.91;5174299;27;20630;-66
2022/01/16 08:14:30;;;;;;;87.23;11.33;;;;;;;3.70;100.00;98668.25;5174343;27;20636;-65
2022/01/16 08:16:57;;;;;;;37.47;7.47;;;;;;;3.85;100.00;98671.53;5173938;27;20776;-66
2022/01/16 08:19:24;;;;;;;34.37;8.33;;;;;;;3.91;100.00;98654.88;5173865;27;20602;-66
2022/01/16 08:21:50;;;;;;;34.47;8.67;;;;;;;3.97;100.00;98654.06;5174258;27;20602;-66
2022/01/16 08:24:17;;;;;;;44.47;7.90;;;;;;;3.86;100.00;98652.03;5146959;27;20586;-65
2022/01/16 08:26:44;;;;;;;37.73;7.10;;;;;;;3.52;100.00;98654.81;5174005;27;20668;-66
2022/01/16 08:29:10;;;;;;;36.30;9.50;;;;;;;3.73;100.00;98667.84;5174054;27;20594;-66
2022/01/16 08:31:38;;;;;;;69.07;10.83;;;;;;;3.85;100.00;98676.00;5174071;27;20601;-66
2022/01/16 08:34:05;;;;;;;33.77;8.73;;;;;;;3.87;100.00;98677.41;5173932;27;20649;-66
2022/01/16 08:36:32;;;;;;;88.97;11.90;;;;;;;3.92;100.00;98672.38;5173712;27;20594;-66
2022/01/16 08:38:59;;;;;;;48.37;8.97;;;;;;;3.99;100.00;98672.38;5173804;27;20609;-66
2022/01/16 08:41:26;;;;;;;69.07;11.20;;;;;;;3.73;100.00;98679.25;5173722;27;20597;-66
2022/01/16 08:43:53;;;;;;;48.63;8.47;;;;;;;3.37;100.00;98684.03;5173848;27;20625;-65
2022/01/16 08:46:20;;;;;;;39.33;8.50;;;;;;;3.61;100.00;98682.66;5165069;27;20649;-67
2022/01/16 08:48:48;;;;;;;50.63;9.97;;;;;;;3.69;100.00;98675.38;5173644;27;20617;-66
2022/01/16 08:51:15;;;;;;;55.77;11.50;;;;;;;3.75;100.00;98673.75;5173340;27;21196;-65
2022/01/16 08:53:41;;;;;;;41.47;9.87;;;;;;;3.70;100.00;98665.63;5166485;27;20638;-66
2022/01/16 08:56:08;;;;;;;73.30;12.30;;;;;;;3.84;100.00;98667.25;5171954;27;20621;-66
2022/01/16 08:58:35;;;;;;;62.97;10.63;;;;;;;3.91;100.00;98670.72;5173230;27;20605;-65
2022/01/16 09:01:01;;;;;;;134.27;15.10;;;;;;;3.99;100.00;98667.09;5172765;27;20682;-66
2022/01/16 09:03:28;;;;;;;55.67;10.20;;;;;;;4.03;100.00;98669.09;5173043;27;20601;-66
2022/01/16 09:05:56;;;;;;;42.27;11.77;;;;;;;4.08;100.00;98674.63;5173206;27;20637;-66
2022/01/16 09:08:23;;;;;;;41.07;10.33;;;;;;;3.69;100.00;98683.28;5173202;27;20601;-65
2022/01/16 09:10:50;;;;;;;46.27;10.13;;;;;;;3.68;100.00;98691.44;5173175;27;20649;-66
2022/01/16 09:13:16;;;;;;;81.83;10.97;;;;;;;3.73;100.00;98683.72;5154370;27;20617;-66
2022/01/16 09:15:44;;;;;;;44.43;9.50;;;;;;;3.49;100.00;98678.97;5172991;27;20621;-65
2022/01/16 09:18:11;;;;;;;62.80;12.10;;;;;;;3.53;100.00;98678.38;5172898;27;20598;-65
2022/01/16 09:20:38;;;;;;;103.17;13.77;;;;;;;3.67;100.00;98677.41;5173094;27;20594;-66
2022/01/16 09:23:06;;;;;;;73.43;10.90;;;;;;;3.75;100.00;98681.66;5171088;27;20610;-65
2022/01/16 09:25:33;;;;;;;77.30;10.97;;;;;;;3.74;100.00;98688.00;5166177;27;20621;-67
2022/01/16 09:27:59;;;;;;;66.17;12.53;;;;;;;3.60;100.00;98683.66;5167013;27;20620;-65
2022/01/16 09:30:27;;;;;;;92.60;12.70;;;;;;;3.69;100.00;98682.47;5154370;27;20611;-67
2022/01/16 09:32:53;;;;;;;41.87;9.93;;;;;;;3.51;100.00;98688.31;5156635;27;20594;-65
2022/01/16 09:35:20;;;;;;;45.00;9.53;;;;;;;3.52;100.00;98675.94;5155838;27;20595;-65
2022/01/16 09:37:47;;;;;;;88.03;12.00;;;;;;;3.67;100.00;98680.03;5159757;27;20637;-66
2022/01/16 09:40:18;;;;;;;44.77;8.67;;;;;;;3.80;100.00;98679.25;5157272;27;21240;-65
2022/01/16 09:42:45;;;;;;;75.43;12.20;;;;;;;3.81;100.00;98686.16;5172524;27;20586;-65
2022/01/16 09:45:14;;;;;;;68.27;11.93;;;;;;;3.70;100.00;98678.81;5172292;27;20601;-66
2022/01/16 09:47:43;;;;;;;42.43;8.53;;;;;;;3.65;100.00;98679.41;5172292;27;20649;-65
2022/01/16 09:50:10;;;;;;;58.30;11.57;;;;;;;3.57;100.00;98684.88;5172159;27;20617;-66
2022/01/16 09:52:38;;;;;;;114.80;13.97;;;;;;;3.63;100.00;98672.72;5172360;27;20598;-67
2022/01/16 09:55:06;;;;;;;42.53;9.97;;;;;;;3.72;100.00;98672.31;5163601;27;20633;-67
2022/01/16 09:57:34;;;;;;;62.50;11.20;;;;;;;4.09;100.00;98657.72;5172065;27;21497;-65
2022/01/16 10:00:01;;;;;;;126.30;15.33;;;;;;;3.99;100.00;98678.44;5172008;27;20594;-65
2022/01/16 10:02:28;;;;;;;49.77;10.00;;;;;;;3.81;100.00;98678.22;5172009;27;20612;-65
2022/01/16 10:04:55;;;;;;;60.50;10.43;;;;;;;4.09;100.00;98672.75;5172077;27;20613;-66
2022/01/16 10:07:21;;;;;;;70.40;11.53;;;;;;;4.21;100.00;98664.03;5171869;27;20676;-65
2022/01/16 10:10:06;;;;;;;72.23;10.50;;;;;;;4.25;100.00;98667.91;5171863;27;20602;-66
2022/01/16 10:12:35;;;;;;;50.30;11.40;;;;;;;4.62;100.00;98666.44;5165272;27;20612;-66
2022/01/16 10:15:16;;;;;;;82.00;11.27;;;;;;;4.35;100.00;98663.00;5171898;27;20666;-65
2022/01/16 10:17:45;;;;;;;55.77;10.97;;;;;;;4.30;100.00;98659.38;5171817;27;20622;-66
2022/01/16 10:20:12;;;;;;;68.47;12.17;;;;;;;4.32;100.00;98654.66;5171764;27;20589;-66
2022/01/16 10:22:42;;;;;;;62.90;11.93;;;;;;;4.73;100.00;98654.41;5171705;27;20642;-66
2022/01/16 10:25:11;;;;;;;50.03;11.83;;;;;;;3.94;100.00;98657.09;5170341;27;20610;-66
2022/01/16 10:27:41;;;;;;;78.57;13.27;;;;;;;4.38;100.00;98651.22;5171536;27;20680;-66
2022/01/16 10:30:09;;;;;;;56.50;12.13;;;;;;;4.17;100.00;98654.91;5171414;27;20621;-66
2022/01/16 10:32:38;;;;;;;91.57;14.80;;;;;;;4.27;100.00;98647.34;5171609;27;20657;-66
2022/01/16 10:35:10;;;;;;;37.70;10.37;;;;;;;3.96;100.00;98651.63;5171446;27;20597;-66
2022/01/16 10:37:37;;;;;;;49.47;12.50;;;;;;;4.08;100.00;98648.19;5171628;27;20606;-67
2022/01/16 10:40:07;;;;;;;54.97;12.53;;;;;;;4.10;100.00;98643.50;5171250;27;20594;-67
2022/01/16 10:42:34;;;;;;;60.90;12.20;;;;;;;4.05;100.00;98643.31;5171389;27;20666;-67
2022/01/16 10:45:07;;;;;;;64.77;13.53;;;;;;;3.93;100.00;98658.13;5171743;27;20614;-66
2022/01/16 10:47:37;;;;;;;65.93;13.60;;;;;;;4.04;100.00;98664.63;5171250;27;20729;-66
2022/01/16 10:50:16;;;;;;;66.00;12.73;;;;;;;3.97;100.00;98671.75;5171245;27;20617;-66
2022/01/16 10:52:51;;;;;;;61.57;12.80;;;;;;;3.94;100.00;98664.22;5150490;27;20607;-67
2022/01/16 10:55:18;;;;;;;46.77;11.47;;;;;;;3.92;100.00;98672.38;5150312;28;20675;-67
2022/01/16 10:57:46;;;;;;;62.07;13.97;;;;;;;3.97;100.00;98663.81;5150666;28;20613;-66
2022/01/16 11:00:17;;;;;;;66.27;14.10;;;;;;;4.08;100.00;98671.97;5150474;28;20601;-66
2022/01/16 11:02:46;;;;;;;69.80;14.60;;;;;;;4.19;100.00;98663.41;5150527;28;20607;-66
2022/01/16 11:05:15;;;;;;;75.47;14.07;;;;;;;3.89;100.00;98667.47;5150129;28;20599;-67
2022/01/16 11:07:43;;;;;;;40.13;12.37;;;;;;;4.09;100.00;98667.47;5150402;28;20630;-66
2022/01/16 11:10:28;;;;;;;86.13;14.83;;;;;;;4.28;100.00;98667.47;5150263;28;20593;-66
2022/01/16 11:12:56;;;;;;;64.57;14.33;;;;;;;4.34;100.00;98664.03;5149065;28;20642;-65
2022/01/16 11:15:25;;;;;;;81.17;17.10;;;;;;;4.35;100.00;98654.25;5150094;28;20593;-65
2022/01/16 11:17:52;;;;;;;120.47;16.33;;;;;;;4.08;100.00;98640.25;5150060;28;20583;-65
2022/01/16 11:20:26;;;;;;;49.30;12.10;;;;;;;3.93;100.00;98652.81;5141480;28;20646;-66
2022/01/16 11:23:03;;;;;;;71.40;14.83;;;;;;;4.06;100.00;98633.53;5150002;28;20613;-66
2022/01/16 11:25:33;;;;;;;71.70;14.90;;;;;;;4.17;100.00;98644.31;5143069;28;20606;-66
2022/01/16 11:28:03;;;;;;;91.87;15.20;;;;;;;4.17;100.00;98638.22;5149842;28;20677;-67
2022/01/16 11:30:32;;;;;;;89.47;18.03;;;;;;;4.21;100.00;98649.97;5149906;28;20683;-67
2022/01/16 11:33:00;;;;;;;89.80;17.63;;;;;;;3.96;100.00;98647.13;5150142;28;20627;-69
2022/01/16 11:35:28;;;;;;;50.53;13.97;;;;;;;3.95;100.00;98658.75;5149969;28;20642;-66
2022/01/16 11:37:56;;;;;;;80.13;17.37;;;;;;;3.92;100.00;98651.22;5149963;28;20638;-65
2022/01/16 11:40:27;;;;;;;61.37;14.57;;;;;;;4.18;100.00;98639.81;5150017;28;20606;-67
2022/01/16 11:43:18;;;;;;;79.63;17.23;;;;;;;4.26;100.00;98647.56;5149934;28;20619;-66
2022/01/16 11:45:48;;;;;;;79.13;15.50;;;;;;;4.12;100.00;98651.22;5150006;28;20603;-66
2022/01/16 11:48:19;;;;;;;44.20;14.53;;;;;;;4.04;100.00;98662.81;5149727;28;20683;-68
2022/01/16 11:50:46;;;;;;;84.17;18.27;;;;;;;4.23;100.00;98654.06;5150081;28;20611;-65
2022/01/16 11:54:04;;;;;;;105.20;19.47;;;;;;;4.29;100.00;98657.72;5151384;27;20601;-67
2022/01/16 11:56:58;;;;;;;94.90;16.27;;;;;;;4.02;100.00;98670.13;5146940;27;20598;-66